createdAt,value
2019-05-30T00:00:46.250Z,99.99
2019-05-30T00:01:46.248Z,99.99
2019-05-30T00:02:46.274Z,99.99
2019-05-30T00:03:46.224Z,99.99
2019-05-30T00:04:46.228Z,99.99
2019-05-30T00:05:54.313Z,99.99
2019-05-30T00:06:46.238Z,99.99
2019-05-30T00:07:46.275Z,99.99
2019-05-30T00:08:46.249Z,99.99
2019-05-30T00:09:46.226Z,99.99
2019-05-30T00:10:46.259Z,99.99
2019-05-30T00:11:46.231Z,99.99
2019-05-30T00:12:46.242Z,99.99
2019-05-30T00:13:46.266Z,99.99
2019-05-30T00:14:46.265Z,99.99
2019-05-30T00:15:46.273Z,99.99
2019-05-30T00:16:46.263Z,99.99
2019-05-30T00:17:46.284Z,99.99
2019-05-30T00:18:46.255Z,99.99
2019-05-30T00:19:46.257Z,99.99
2019-05-30T00:20:46.305Z,99.99
2019-05-30T00:21:46.236Z,99.99
2019-05-30T00:22:46.257Z,99.99
2019-05-30T00:23:46.267Z,99.99
2019-05-30T00:24:46.273Z,99.99
2019-05-30T00:25:46.261Z,99.99
2019-05-30T00:26:46.307Z,99.99
2019-05-30T00:27:46.247Z,99.99
2019-05-30T00:28:46.262Z,99.99
2019-05-30T00:29:46.283Z,99.99
2019-05-30T00:30:46.277Z,99.99
2019-05-30T00:31:46.285Z,99.99
2019-05-30T00:32:46.268Z,99.99
2019-05-30T00:33:46.337Z,99.99
2019-05-30T00:34:46.304Z,99.99
2019-05-30T00:35:58.190Z,99.99
2019-05-30T00:36:46.306Z,99.99
2019-05-30T00:37:46.392Z,99.99
2019-05-30T00:38:46.332Z,99.99
2019-05-30T00:39:46.300Z,99.99
2019-05-30T00:40:46.306Z,99.99
2019-05-30T00:41:46.314Z,99.99
2019-05-30T00:42:46.318Z,99.99
2019-05-30T00:43:46.305Z,99.99
2019-05-30T00:44:46.352Z,99.99
2019-05-30T00:45:46.317Z,99.99
2019-05-30T00:46:46.324Z,99.99
2019-05-30T00:47:46.331Z,99.99
2019-05-30T00:48:46.337Z,99.99
2019-05-30T00:49:46.318Z,99.99
2019-05-30T00:50:46.293Z,99.99
2019-05-30T00:51:46.338Z,99.99
2019-05-30T00:52:46.342Z,99.99
2019-05-30T00:53:46.346Z,99.99
2019-05-30T00:54:46.352Z,99.99
2019-05-30T00:55:46.324Z,99.99
2019-05-30T00:56:46.341Z,99.99
2019-05-30T00:57:46.334Z,99.99
2019-05-30T00:58:46.395Z,99.99
2019-05-30T00:59:46.331Z,99.99
2019-05-30T01:00:46.990Z,99.99
2019-05-30T01:01:46.324Z,99.99
2019-05-30T01:02:46.454Z,99.99
2019-05-30T01:03:46.354Z,99.99
2019-05-30T01:04:46.447Z,99.99
2019-05-30T01:05:46.398Z,99.99
2019-05-30T01:06:46.381Z,99.99
2019-05-30T01:07:46.378Z,99.99
2019-05-30T01:08:46.406Z,99.99
2019-05-30T01:09:46.363Z,99.99
2019-05-30T01:10:46.346Z,99.99
2019-05-30T01:11:46.373Z,99.99
2019-05-30T01:12:46.412Z,99.99
2019-05-30T01:13:46.374Z,99.99
2019-05-30T01:14:46.373Z,99.99
2019-05-30T01:15:46.348Z,99.99
2019-05-30T01:16:46.413Z,99.99
2019-05-30T01:17:46.358Z,99.99
2019-05-30T01:18:46.672Z,99.99
2019-05-30T01:19:46.374Z,99.99
2019-05-30T01:20:46.362Z,99.99
2019-05-30T01:21:46.375Z,99.99
2019-05-30T01:22:46.388Z,99.99
2019-05-30T01:23:46.402Z,99.99
2019-05-30T01:24:46.367Z,99.99
2019-05-30T01:25:46.390Z,99.99
2019-05-30T01:26:46.461Z,99.99
2019-05-30T01:27:46.388Z,99.99
2019-05-30T01:28:46.386Z,99.99
2019-05-30T01:29:46.414Z,99.99
2019-05-30T01:31:05.431Z,99.99
2019-05-30T01:31:46.403Z,99.99
2019-05-30T01:32:46.357Z,99.99
2019-05-30T01:33:46.342Z,99.99
2019-05-30T01:34:46.408Z,99.99
2019-05-30T01:35:46.415Z,99.99
2019-05-30T01:36:46.382Z,99.99
2019-05-30T01:37:46.371Z,99.99
2019-05-30T01:38:46.386Z,99.99
2019-05-30T01:39:46.381Z,99.99
2019-05-30T01:40:46.410Z,99.99
2019-05-30T01:41:46.386Z,99.99
2019-05-30T01:42:46.374Z,99.99
2019-05-30T01:43:46.379Z,99.99
2019-05-30T01:44:46.391Z,99.99
2019-05-30T01:45:46.441Z,99.99
2019-05-30T01:46:46.419Z,99.99
2019-05-30T01:47:46.425Z,99.99
2019-05-30T01:48:46.455Z,99.99
2019-05-30T01:49:46.379Z,99.99
2019-05-30T01:50:46.732Z,99.99
2019-05-30T01:51:46.394Z,99.99
2019-05-30T01:52:46.387Z,99.99
2019-05-30T01:53:46.384Z,99.99
2019-05-30T01:54:46.376Z,99.99
2019-05-30T01:55:48.731Z,99.99
2019-05-30T01:56:46.669Z,99.99
2019-05-30T01:57:46.369Z,99.99
2019-05-30T01:58:46.403Z,99.99
2019-05-30T02:00:51.151Z,99.99
2019-05-30T02:01:27.571Z,99.99
2019-05-30T02:02:20.310Z,99.99
2019-05-30T02:03:20.284Z,99.99
2019-05-30T02:04:20.249Z,99.99
2019-05-30T02:05:20.281Z,99.99
2019-05-30T02:06:20.290Z,99.99
2019-05-30T02:07:20.300Z,99.99
2019-05-30T02:08:20.275Z,99.99
2019-05-30T02:09:20.393Z,99.99
2019-05-30T02:10:20.454Z,99.99
2019-05-30T02:11:20.271Z,99.99
2019-05-30T02:12:20.310Z,99.99
2019-05-30T02:13:21.302Z,99.99
2019-05-30T02:14:20.280Z,99.99
2019-05-30T02:15:20.287Z,99.99
2019-05-30T02:16:20.294Z,99.99
2019-05-30T02:17:20.299Z,99.99
2019-05-30T02:18:20.286Z,99.99
2019-05-30T02:19:20.316Z,99.99
2019-05-30T02:20:20.286Z,99.99
2019-05-30T02:21:20.311Z,99.99
2019-05-30T02:22:20.290Z,99.99
2019-05-30T02:23:20.299Z,99.99
2019-05-30T02:24:20.303Z,99.99
2019-05-30T02:25:20.297Z,99.99
2019-05-30T02:26:20.278Z,99.99
2019-05-30T02:27:20.336Z,99.99
2019-05-30T02:28:20.333Z,99.99
2019-05-30T02:29:20.399Z,99.99
2019-05-30T02:30:20.328Z,99.99
2019-05-30T02:31:40.391Z,99.99
2019-05-30T02:32:20.303Z,99.99
2019-05-30T02:33:20.306Z,99.99
2019-05-30T02:34:20.349Z,99.99
2019-05-30T02:35:20.357Z,99.99
2019-05-30T02:36:20.369Z,99.99
2019-05-30T02:37:20.295Z,99.99
2019-05-30T02:38:20.325Z,99.99
2019-05-30T02:39:20.370Z,99.99
2019-05-30T02:40:20.378Z,99.99
2019-05-30T02:41:20.362Z,99.99
2019-05-30T02:42:20.350Z,99.99
2019-05-30T02:43:20.339Z,99.99
2019-05-30T02:44:20.318Z,99.99
2019-05-30T02:45:20.337Z,99.99
2019-05-30T02:46:20.357Z,99.99
2019-05-30T02:47:24.895Z,99.99
2019-05-30T02:48:20.368Z,99.99
2019-05-30T02:49:20.334Z,99.99
2019-05-30T02:50:20.729Z,99.99
2019-05-30T02:51:20.374Z,99.99
2019-05-30T02:52:20.358Z,99.99
2019-05-30T02:53:20.374Z,99.99
2019-05-30T02:54:20.409Z,99.99
2019-05-30T02:55:20.372Z,99.99
2019-05-30T02:56:20.359Z,99.99
2019-05-30T02:57:20.373Z,99.99
2019-05-30T02:58:20.373Z,99.99
2019-05-30T02:59:20.346Z,99.99
2019-05-30T03:00:20.943Z,99.99
2019-05-30T03:01:20.399Z,99.99
2019-05-30T03:02:20.694Z,99.99
2019-05-30T03:03:20.343Z,99.99
2019-05-30T03:04:20.355Z,99.99
2019-05-30T03:05:20.473Z,99.99
2019-05-30T03:06:20.342Z,99.99
2019-05-30T03:07:20.369Z,99.99
2019-05-30T03:08:20.327Z,99.99
2019-05-30T03:09:20.340Z,99.99
2019-05-30T03:10:20.365Z,99.99
2019-05-30T03:11:20.412Z,99.99
2019-05-30T03:12:20.374Z,99.99
2019-05-30T03:13:20.667Z,99.99
2019-05-30T03:14:22.599Z,99.99
2019-05-30T03:15:20.379Z,99.99
2019-05-30T03:16:20.367Z,99.99
2019-05-30T03:17:20.391Z,99.99
2019-05-30T03:18:20.373Z,99.99
2019-05-30T03:19:20.381Z,99.99
2019-05-30T03:20:25.671Z,99.99
2019-05-30T03:21:20.353Z,99.99
2019-05-30T03:22:20.372Z,99.99
2019-05-30T03:23:20.409Z,99.99
2019-05-30T03:24:20.379Z,99.99
2019-05-30T03:25:20.485Z,99.99
2019-05-30T03:26:20.713Z,99.99
2019-05-30T03:27:20.372Z,99.99
2019-05-30T03:28:20.421Z,99.99
2019-05-30T03:29:20.383Z,99.99
2019-05-30T03:30:30.191Z,99.99
2019-05-30T03:31:31.288Z,99.99
2019-05-30T03:33:16.270Z,99.99
2019-05-30T03:33:48.821Z,99.99
2019-05-30T03:34:48.865Z,99.99
2019-05-30T03:35:48.860Z,99.99
2019-05-30T03:36:48.835Z,99.99
2019-05-30T03:37:49.379Z,99.99
2019-05-30T03:38:48.824Z,99.99
2019-05-30T03:39:49.117Z,99.99
2019-05-30T03:40:48.798Z,99.99
2019-05-30T03:41:48.802Z,99.99
2019-05-30T03:42:48.791Z,99.99
2019-05-30T03:43:48.853Z,99.99
2019-05-30T03:44:48.843Z,99.99
2019-05-30T03:45:48.808Z,99.99
2019-05-30T03:46:48.815Z,99.99
2019-05-30T03:47:48.820Z,99.99
2019-05-30T03:48:48.816Z,99.99
2019-05-30T03:49:48.836Z,99.99
2019-05-30T03:50:48.846Z,99.99
2019-05-30T03:51:48.851Z,99.99
2019-05-30T03:52:48.817Z,99.99
2019-05-30T03:53:48.833Z,99.99
2019-05-30T03:54:48.837Z,99.99
2019-05-30T03:55:48.813Z,99.99
2019-05-30T03:56:48.804Z,99.99
2019-05-30T03:57:48.871Z,99.99
2019-05-30T03:58:48.814Z,99.99
2019-05-30T03:59:48.868Z,99.99
2019-05-30T04:00:53.518Z,99.99
2019-05-30T04:01:49.101Z,99.99
2019-05-30T04:02:59.979Z,99.99
2019-05-30T04:03:48.911Z,99.99
2019-05-30T04:04:48.835Z,99.99
2019-05-30T04:05:48.884Z,99.99
2019-05-30T04:06:48.846Z,99.99
2019-05-30T04:07:48.854Z,99.99
2019-05-30T04:08:48.841Z,99.99
2019-05-30T04:09:48.873Z,99.99
2019-05-30T04:10:48.867Z,99.99
2019-05-30T04:11:48.825Z,99.99
2019-05-30T04:12:48.851Z,99.99
2019-05-30T04:13:48.872Z,99.99
2019-05-30T04:14:48.858Z,99.99
2019-05-30T04:15:48.845Z,99.99
2019-05-30T04:16:48.941Z,99.99
2019-05-30T04:17:48.839Z,99.99
2019-05-30T04:18:48.864Z,99.99
2019-05-30T04:19:48.878Z,99.99
2019-05-30T04:20:48.862Z,99.99
2019-05-30T04:21:48.904Z,99.99
2019-05-30T04:22:48.882Z,99.99
2019-05-30T04:23:48.863Z,99.99
2019-05-30T04:24:48.865Z,99.99
2019-05-30T04:25:48.873Z,99.99
2019-05-30T04:26:48.858Z,99.99
2019-05-30T04:27:48.866Z,99.99
2019-05-30T04:28:48.919Z,99.99
2019-05-30T04:29:48.899Z,99.99
2019-05-30T04:30:49.168Z,99.99
2019-05-30T04:31:48.870Z,99.99
2019-05-30T04:32:48.873Z,99.99
2019-05-30T04:33:48.905Z,99.99
2019-05-30T04:34:48.893Z,99.99
2019-05-30T04:35:48.876Z,99.99
2019-05-30T04:36:53.080Z,99.99
2019-05-30T04:37:48.895Z,99.99
2019-05-30T04:38:48.948Z,99.99
2019-05-30T04:39:48.861Z,99.99
2019-05-30T04:40:48.878Z,99.99
2019-05-30T04:41:54.331Z,99.99
2019-05-30T04:42:48.887Z,99.99
2019-05-30T04:43:48.916Z,99.99
2019-05-30T04:44:48.908Z,99.99
2019-05-30T04:45:49.029Z,99.99
2019-05-30T04:46:48.897Z,99.99
2019-05-30T04:47:48.858Z,99.99
2019-05-30T04:48:49.012Z,99.99
2019-05-30T04:49:48.913Z,99.99
2019-05-30T04:50:48.882Z,99.99
2019-05-30T04:51:48.909Z,99.99
2019-05-30T04:52:48.940Z,99.99
2019-05-30T04:53:49.111Z,99.99
2019-05-30T04:54:48.888Z,99.99
2019-05-30T04:55:48.917Z,99.99
2019-05-30T04:56:48.988Z,99.99
2019-05-30T04:57:48.909Z,99.99
2019-05-30T04:58:48.897Z,99.99
2019-05-30T04:59:48.919Z,99.99
2019-05-30T05:00:48.881Z,99.99
2019-05-30T05:01:48.954Z,99.99
2019-05-30T05:02:48.903Z,99.99
2019-05-30T05:03:49.705Z,99.99
2019-05-30T05:04:49.868Z,99.99
2019-05-30T05:05:48.960Z,99.99
2019-05-30T05:06:48.910Z,99.99
2019-05-30T05:07:48.915Z,99.99
2019-05-30T05:08:48.908Z,99.99
2019-05-30T05:09:48.912Z,99.99
2019-05-30T05:10:48.923Z,99.99
2019-05-30T05:11:48.998Z,99.99
2019-05-30T05:12:48.894Z,99.99
2019-05-30T05:13:49.044Z,99.99
2019-05-30T05:14:48.966Z,99.99
2019-05-30T05:15:48.955Z,99.99
2019-05-30T05:16:49.061Z,99.99
2019-05-30T05:17:48.942Z,99.99
2019-05-30T05:18:48.927Z,99.99
2019-05-30T05:19:48.893Z,99.99
2019-05-30T05:20:48.950Z,99.99
2019-05-30T05:21:48.936Z,99.99
2019-05-30T05:22:48.937Z,99.99
2019-05-30T05:23:49.050Z,99.99
2019-05-30T05:24:48.908Z,99.99
2019-05-30T05:26:03.025Z,99.99
2019-05-30T05:26:48.944Z,99.99
2019-05-30T05:27:48.952Z,99.99
2019-05-30T05:28:48.919Z,99.99
2019-05-30T05:29:48.940Z,99.99
2019-05-30T05:30:48.924Z,99.99
2019-05-30T05:31:48.952Z,99.99
2019-05-30T05:32:49.001Z,99.99
2019-05-30T05:33:59.415Z,99.99
2019-05-30T05:34:51.855Z,99.99
2019-05-30T05:35:49.002Z,99.99
2019-05-30T05:36:48.926Z,99.99
2019-05-30T05:37:48.975Z,99.99
2019-05-30T05:42:18.049Z,99.99
2019-05-30T05:43:18.512Z,99.99
2019-05-30T05:44:18.211Z,99.99
2019-05-30T05:45:18.198Z,99.99
2019-05-30T05:46:18.333Z,99.99
2019-05-30T05:47:18.297Z,99.99
2019-05-30T05:48:18.303Z,99.99
2019-05-30T05:49:18.315Z,99.99
2019-05-30T05:50:18.361Z,99.99
2019-05-30T05:51:17.123Z,99.99
2019-05-30T05:52:17.087Z,99.99
2019-05-30T05:53:17.110Z,99.99
2019-05-30T05:54:17.118Z,99.99
2019-05-30T05:55:17.125Z,99.99
2019-05-30T05:56:17.089Z,99.99
2019-05-30T05:57:17.224Z,99.99
2019-05-30T05:58:17.155Z,99.99
2019-05-30T05:59:17.175Z,99.99
2019-05-30T06:00:17.129Z,99.99
2019-05-30T06:01:17.412Z,99.99
2019-05-30T06:02:17.657Z,99.99
2019-05-30T06:03:20.350Z,99.99
2019-05-30T06:04:17.262Z,99.99
2019-05-30T06:05:18.001Z,99.99
2019-05-30T06:06:17.271Z,99.99
2019-05-30T06:07:18.145Z,99.99
2019-05-30T06:08:17.422Z,99.99
2019-05-30T06:09:18.119Z,99.99
2019-05-30T06:10:17.551Z,99.99
2019-05-30T06:11:17.360Z,99.99
2019-05-30T06:12:17.564Z,99.99
2019-05-30T06:13:17.151Z,99.99
2019-05-30T06:14:17.776Z,99.99
2019-05-30T06:15:17.193Z,99.99
2019-05-30T06:16:17.771Z,99.99
2019-05-30T06:17:17.123Z,99.99
2019-05-30T06:18:18.074Z,99.99
2019-05-30T06:19:17.253Z,99.99
2019-05-30T06:20:17.442Z,99.99
2019-05-30T06:21:17.273Z,99.99
2019-05-30T06:22:17.381Z,99.99
2019-05-30T06:23:17.346Z,99.99
2019-05-30T06:24:17.621Z,99.99
2019-05-30T06:25:18.891Z,99.99
2019-05-30T06:26:17.754Z,99.99
2019-05-30T06:27:17.784Z,99.99
2019-05-30T06:28:17.954Z,99.99
2019-05-30T06:29:17.940Z,99.99
2019-05-30T06:30:18.202Z,99.99
2019-05-30T06:31:18.312Z,99.99
2019-05-30T06:32:18.451Z,99.99
2019-05-30T06:33:18.469Z,99.33
2019-05-30T06:34:39.127Z,97.28
2019-05-30T06:35:17.163Z,96.32
2019-05-30T06:36:17.222Z,96.51
2019-05-30T06:37:17.185Z,96.42
2019-05-30T06:38:17.172Z,95.98
2019-05-30T06:39:17.178Z,94.45
2019-05-30T06:40:17.214Z,93.21
2019-05-30T06:41:17.177Z,92.82
2019-05-30T06:42:17.187Z,92.15
2019-05-30T06:43:17.280Z,91.14
2019-05-30T06:44:17.237Z,91.05
2019-05-30T06:45:18.191Z,90.38
2019-05-30T06:46:17.211Z,90.42
2019-05-30T06:47:17.176Z,90.14
2019-05-30T06:48:17.563Z,88.6
2019-05-30T06:49:17.255Z,88.26
2019-05-30T06:50:17.202Z,88.35
2019-05-30T06:51:17.496Z,89.18
2019-05-30T06:52:17.354Z,89.32
2019-05-30T06:53:17.183Z,89.89
2019-05-30T06:54:17.212Z,90.08
2019-05-30T06:55:17.293Z,88.55
2019-05-30T06:56:17.240Z,88.31
2019-05-30T06:57:17.262Z,88.88
2019-05-30T06:58:17.222Z,89.07
2019-05-30T06:59:17.296Z,88.59
2019-05-30T07:00:17.199Z,86.72
2019-05-30T07:01:17.269Z,85.75
2019-05-30T07:02:17.229Z,86.05
2019-05-30T07:03:17.442Z,85.18
2019-05-30T07:04:18.306Z,85.28
2019-05-30T07:05:18.719Z,85.03
2019-05-30T07:06:18.234Z,86.05
2019-05-30T07:07:17.602Z,87.73
2019-05-30T07:08:17.219Z,86.43
2019-05-30T07:09:17.324Z,85.99
2019-05-30T07:10:17.321Z,86.33
2019-05-30T07:11:17.260Z,85.66
2019-05-30T07:12:17.278Z,84.45
2019-05-30T07:13:17.243Z,84.01
2019-05-30T07:14:17.242Z,84.4
2019-05-30T07:15:17.258Z,84.59
2019-05-30T07:16:17.349Z,83.53
2019-05-30T07:17:17.271Z,83.97
2019-05-30T07:18:17.235Z,83.25
2019-05-30T07:19:17.306Z,82.76
2019-05-30T07:20:17.238Z,80.11
2019-05-30T07:21:17.276Z,79.63
2019-05-30T07:22:17.274Z,79.19
2019-05-30T07:23:17.235Z,79.28
2019-05-30T07:24:17.277Z,79.48
2019-05-30T07:25:17.272Z,78.71
2019-05-30T07:26:17.412Z,77.59
2019-05-30T07:27:17.275Z,76.82
2019-05-30T07:28:17.260Z,77.4
2019-05-30T07:29:17.358Z,77.5
2019-05-30T07:30:17.285Z,77.06
2019-05-30T07:31:17.301Z,75.86
2019-05-30T07:32:17.286Z,76.53
2019-05-30T07:33:17.275Z,76.09
2019-05-30T07:34:17.278Z,76.18
2019-05-30T07:35:17.295Z,75.71
2019-05-30T07:36:17.272Z,76.18
2019-05-30T07:37:17.357Z,77.25
2019-05-30T07:38:18.271Z,76.48
2019-05-30T07:39:17.301Z,77.69
2019-05-30T07:40:22.006Z,77.26
2019-05-30T07:41:17.370Z,77.94
2019-05-30T07:42:17.266Z,79.63
2019-05-30T07:43:17.279Z,78.61
2019-05-30T07:44:17.322Z,77.69
2019-05-30T07:45:18.083Z,75.48
2019-05-30T07:46:17.284Z,75.57
2019-05-30T07:47:17.280Z,75.86
2019-05-30T07:48:17.303Z,75.9
2019-05-30T07:49:17.300Z,75.32
2019-05-30T07:50:17.296Z,75.38
2019-05-30T07:51:17.312Z,76.15
2019-05-30T07:52:17.313Z,75.86
2019-05-30T07:53:18.019Z,75.86
2019-05-30T07:54:17.318Z,77.01
2019-05-30T07:55:17.291Z,76.11
2019-05-30T07:56:17.349Z,75.38
2019-05-30T07:57:17.326Z,75.32
2019-05-30T07:58:17.343Z,75.55
2019-05-30T07:59:17.694Z,75.55
2019-05-30T08:00:17.335Z,74.01
2019-05-30T08:01:17.315Z,71.95
2019-05-30T08:02:17.325Z,71.81
2019-05-30T08:03:17.310Z,72.39
2019-05-30T08:04:17.339Z,72.88
2019-05-30T08:05:27.172Z,72.88
2019-05-30T08:06:17.345Z,73.55
2019-05-30T08:07:17.354Z,76.25
2019-05-30T08:08:17.360Z,76.48
2019-05-30T08:09:17.495Z,74.93
2019-05-30T08:10:17.411Z,73.39
2019-05-30T08:11:17.350Z,73.01
2019-05-30T08:12:17.361Z,72.97
2019-05-30T08:13:17.348Z,71.76
2019-05-30T08:14:17.351Z,71.65
2019-05-30T08:15:17.359Z,73.28
2019-05-30T08:16:17.688Z,73.55
2019-05-30T08:17:17.376Z,72.68
2019-05-30T08:18:17.365Z,73.07
2019-05-30T08:19:17.353Z,72.91
2019-05-30T08:20:17.368Z,72.78
2019-05-30T08:21:17.376Z,73.74
2019-05-30T08:22:17.366Z,71.95
2019-05-30T08:23:17.362Z,70.62
2019-05-30T08:24:17.482Z,70.5
2019-05-30T08:25:17.446Z,71.66
2019-05-30T08:26:20.994Z,70.5
2019-05-30T08:27:17.606Z,70.54
2019-05-30T08:28:17.428Z,71.85
2019-05-30T08:29:17.366Z,72.75
2019-05-30T08:30:17.370Z,71.41
2019-05-30T08:31:17.384Z,70.64
2019-05-30T08:32:18.344Z,70.96
2019-05-30T08:33:17.503Z,71.25
2019-05-30T08:34:17.390Z,70.38
2019-05-30T08:35:17.431Z,70.8
2019-05-30T08:36:17.434Z,69.74
2019-05-30T08:37:17.397Z,66.46
2019-05-30T08:38:17.472Z,68.01
2019-05-30T08:39:17.476Z,67.49
2019-05-30T08:40:17.382Z,68.13
2019-05-30T08:41:17.423Z,69.19
2019-05-30T08:42:17.403Z,70.38
2019-05-30T08:43:17.399Z,68.93
2019-05-30T08:44:17.403Z,68.23
2019-05-30T08:45:17.430Z,68.58
2019-05-30T08:46:17.395Z,69.06
2019-05-30T08:47:17.405Z,68.68
2019-05-30T08:48:17.408Z,68.71
2019-05-30T08:50:41.246Z,68.44
2019-05-30T08:51:38.279Z,70.12
2019-05-30T08:52:38.605Z,69.48
2019-05-30T08:53:38.412Z,69.09
2019-05-30T08:54:38.426Z,69.23
2019-05-30T08:55:38.487Z,69.35
2019-05-30T08:56:38.516Z,69.55
2019-05-30T08:57:38.675Z,69.2
2019-05-30T08:58:38.655Z,67.85
2019-05-30T08:59:38.535Z,66.97
2019-05-30T09:00:37.452Z,68.33
2019-05-30T09:01:39.943Z,66.91
2019-05-30T09:02:38.675Z,66.14
2019-05-30T09:03:38.841Z,66.11
2019-05-30T09:04:38.364Z,64.18
2019-05-30T09:05:38.758Z,65.47
2019-05-30T09:06:38.434Z,64.5
2019-05-30T09:07:40.028Z,62.82
2019-05-30T09:08:38.577Z,63.09
2019-05-30T09:09:46.933Z,63.02
2019-05-30T09:10:39.445Z,62.22
2019-05-30T09:11:39.250Z,62.05
2019-05-30T09:12:42.561Z,63.73
2019-05-30T09:13:38.908Z,64.37
2019-05-30T09:14:38.887Z,63.98
2019-05-30T09:15:37.882Z,62.82
2019-05-30T09:16:37.761Z,62.54
2019-05-30T09:17:46.733Z,63.24
2019-05-30T09:18:38.474Z,64.18
2019-05-30T09:19:38.377Z,63.6
2019-05-30T09:20:38.368Z,63.54
2019-05-30T09:21:38.512Z,63.95
2019-05-30T09:22:38.411Z,64.76
2019-05-30T09:23:38.932Z,62.54
2019-05-30T09:24:38.641Z,62.31
2019-05-30T09:25:38.578Z,62.09
2019-05-30T09:26:38.597Z,60.71
2019-05-30T09:27:37.720Z,60.13
2019-05-30T09:28:37.938Z,61.47
2019-05-30T09:29:37.828Z,61.38
2019-05-30T09:30:38.184Z,62.18
2019-05-30T09:31:38.046Z,63.7
2019-05-30T09:32:38.326Z,59.86
2019-05-30T09:33:38.056Z,59.06
2019-05-30T09:34:38.300Z,58.03
2019-05-30T09:35:38.462Z,57.64
2019-05-30T09:36:39.368Z,60.06
2019-05-30T09:37:38.688Z,59.51
2019-05-30T09:38:37.454Z,59.58
2019-05-30T09:39:47.336Z,60.38
2019-05-30T09:40:37.497Z,62.47
2019-05-30T09:41:37.450Z,60.67
2019-05-30T09:42:37.464Z,58.42
2019-05-30T09:43:37.469Z,57.77
2019-05-30T09:44:37.685Z,57.77
2019-05-30T09:45:37.484Z,57.79
2019-05-30T09:46:37.575Z,58.03
2019-05-30T09:47:37.510Z,57.45
2019-05-30T09:48:37.482Z,56.36
2019-05-30T09:49:37.505Z,56.65
2019-05-30T09:50:37.571Z,54.72
2019-05-30T09:51:37.537Z,54.65
2019-05-30T09:52:37.489Z,55.71
2019-05-30T09:53:37.472Z,56.65
2019-05-30T09:54:37.514Z,56.48
2019-05-30T09:55:37.489Z,56.8
2019-05-30T09:56:37.495Z,56.51
2019-05-30T09:57:37.537Z,55.42
2019-05-30T09:58:37.506Z,55.52
2019-05-30T09:59:37.521Z,56.9
2019-05-30T10:00:37.539Z,56.22
2019-05-30T10:01:37.505Z,56.51
2019-05-30T10:02:37.496Z,56.41
2019-05-30T10:03:37.497Z,56.13
2019-05-30T10:04:37.584Z,55.74
2019-05-30T10:05:37.527Z,55.74
2019-05-30T10:06:37.534Z,55.45
2019-05-30T10:07:37.607Z,54.97
2019-05-30T10:08:37.530Z,54.97
2019-05-30T10:09:48.879Z,54.75
2019-05-30T10:10:37.564Z,54.55
2019-05-30T10:11:37.538Z,54.62
2019-05-30T10:12:37.639Z,54.43
2019-05-30T10:13:37.528Z,53.85
2019-05-30T10:14:37.536Z,53.95
2019-05-30T10:15:37.600Z,53.85
2019-05-30T10:16:37.551Z,53.59
2019-05-30T10:17:37.528Z,53.13
2019-05-30T10:18:37.522Z,51.59
2019-05-30T10:19:37.543Z,51.97
2019-05-30T10:20:37.548Z,51.68
2019-05-30T10:21:37.546Z,51.49
2019-05-30T10:22:37.527Z,50.89
2019-05-30T10:23:37.533Z,50.98
2019-05-30T10:24:37.766Z,52.31
2019-05-30T10:25:37.560Z,53.78
2019-05-30T10:26:37.571Z,56.58
2019-05-30T10:27:37.576Z,56.65
2019-05-30T10:28:37.544Z,56.96
2019-05-30T10:29:37.550Z,56.87
2019-05-30T10:30:37.575Z,56.68
2019-05-30T10:31:37.605Z,56.77
2019-05-30T10:32:37.554Z,56
2019-05-30T10:33:37.551Z,56.13
2019-05-30T10:34:37.560Z,55.9
2019-05-30T10:35:37.555Z,56.68
2019-05-30T10:36:48.541Z,57.12
2019-05-30T10:37:37.559Z,57.6
2019-05-30T10:38:37.589Z,55.35
2019-05-30T10:39:47.242Z,55.16
2019-05-30T10:46:24.054Z,55.07
2019-05-30T10:47:24.087Z,54.77
2019-05-30T10:48:24.149Z,56.03
2019-05-30T10:49:37.381Z,55.47
2019-05-30T10:50:24.059Z,54.8
2019-05-30T10:51:24.040Z,55.57
2019-05-30T10:52:24.094Z,54.73
2019-05-30T10:53:24.080Z,54.32
2019-05-30T10:54:24.044Z,55.7
2019-05-30T10:55:24.050Z,53.19
2019-05-30T10:56:24.098Z,51.73
2019-05-30T10:57:24.108Z,52
2019-05-30T10:58:24.511Z,51.42
2019-05-30T10:59:24.117Z,51.03
2019-05-30T11:00:24.151Z,51.13
2019-05-30T11:01:24.070Z,50.93
2019-05-30T11:02:24.092Z,52.09
2019-05-30T11:03:24.059Z,51.78
2019-05-30T11:04:24.089Z,52.09
2019-05-30T11:05:24.118Z,51.61
2019-05-30T11:06:24.080Z,51.68
2019-05-30T11:07:24.133Z,50.93
2019-05-30T11:08:24.093Z,51.32
2019-05-30T11:09:24.100Z,51.81
2019-05-30T11:10:24.106Z,51.71
2019-05-30T11:11:24.104Z,51.61
2019-05-30T11:12:24.068Z,52.26
2019-05-30T11:13:24.109Z,54.49
2019-05-30T11:14:24.120Z,53.71
2019-05-30T11:15:24.089Z,53.74
2019-05-30T11:16:24.109Z,53.81
2019-05-30T11:17:24.105Z,52.77
2019-05-30T11:18:24.100Z,53.83
2019-05-30T11:19:24.127Z,52.51
2019-05-30T11:20:24.197Z,51.15
2019-05-30T11:21:24.144Z,51.25
2019-05-30T11:22:24.243Z,51.54
2019-05-30T11:23:24.138Z,51.54
2019-05-30T11:24:24.109Z,51.83
2019-05-30T11:25:24.130Z,51.54
2019-05-30T11:26:24.141Z,51.73
2019-05-30T11:27:24.146Z,51.03
2019-05-30T11:28:24.148Z,52.02
2019-05-30T11:29:24.120Z,53.11
2019-05-30T11:30:24.233Z,53.19
2019-05-30T11:31:24.130Z,53.47
2019-05-30T11:32:24.114Z,53.19
2019-05-30T11:33:24.139Z,53.52
2019-05-30T11:34:24.146Z,52.09
2019-05-30T11:35:24.152Z,52.39
2019-05-30T11:36:24.147Z,53.86
2019-05-30T11:37:24.146Z,54.27
2019-05-30T11:38:24.153Z,53.28
2019-05-30T11:39:24.158Z,52
2019-05-30T11:40:24.168Z,53.25
2019-05-30T11:41:24.140Z,54.41
2019-05-30T11:42:24.137Z,55.73
2019-05-30T11:46:53.457Z,53.69
2019-05-30T11:47:53.784Z,53.69
2019-05-30T11:48:53.642Z,53.02
2019-05-30T11:49:53.587Z,53.63
2019-05-30T11:50:53.749Z,52.27
2019-05-30T11:51:54.286Z,52.08
2019-05-30T11:52:53.762Z,53.23
2019-05-30T11:53:53.718Z,52.89
2019-05-30T11:54:52.820Z,52.34
2019-05-30T11:55:54.049Z,52.24
2019-05-30T11:56:53.708Z,52.41
2019-05-30T11:57:54.531Z,53.02
2019-05-30T11:58:52.612Z,52.05
2019-05-30T11:59:52.718Z,51.76
2019-05-30T12:00:53.421Z,51.95
2019-05-30T12:01:53.322Z,53.89
2019-05-30T12:02:53.153Z,54.47
2019-05-30T12:03:54.346Z,53.31
2019-05-30T12:04:53.141Z,52.14
2019-05-30T12:05:53.109Z,52.44
2019-05-30T12:06:54.623Z,52.53
2019-05-30T12:07:54.702Z,54.27
2019-05-30T12:08:53.313Z,54.15
2019-05-30T12:09:53.391Z,53.67
2019-05-30T12:10:54.905Z,53.21
2019-05-30T12:11:53.633Z,52.7
2019-05-30T12:12:55.152Z,52.02
2019-05-30T12:13:55.155Z,52.02
2019-05-30T12:14:55.163Z,54.17
2019-05-30T12:15:55.300Z,54.53
2019-05-30T12:20:24.805Z,53.96
2019-05-30T12:21:24.428Z,53.28
2019-05-30T12:22:24.412Z,54.27
2019-05-30T12:23:24.426Z,54.01
2019-05-30T12:24:24.364Z,52.08
2019-05-30T12:25:24.409Z,51.68
2019-05-30T12:29:54.000Z,52.27
2019-05-30T12:31:04.953Z,52.24
2019-05-30T12:31:55.936Z,53.79
2019-05-30T12:32:54.084Z,55.17
2019-05-30T12:33:54.079Z,53.72
2019-05-30T12:34:52.823Z,51.98
2019-05-30T12:35:52.851Z,52.05
2019-05-30T12:36:52.856Z,52.99
2019-05-30T12:38:04.888Z,52.17
2019-05-30T12:38:52.873Z,53.31
2019-05-30T12:39:52.890Z,52.75
2019-05-30T12:40:52.852Z,52.68
2019-05-30T12:41:52.872Z,51.5
2019-05-30T12:42:58.976Z,52.36
2019-05-30T12:43:53.033Z,53.63
2019-05-30T12:44:52.953Z,53.59
2019-05-30T12:45:52.921Z,54.49
2019-05-30T12:46:53.366Z,53.91
2019-05-30T12:47:53.016Z,54.01
2019-05-30T12:48:53.254Z,53.41
2019-05-30T12:49:53.255Z,53.99
2019-05-30T12:50:53.158Z,53.89
2019-05-30T12:51:54.060Z,53.96
2019-05-30T12:52:53.405Z,54.15
2019-05-30T12:53:52.923Z,53.67
2019-05-30T12:54:52.872Z,53.83
2019-05-30T12:55:52.897Z,54.99
2019-05-30T12:56:52.918Z,54.83
2019-05-30T12:57:52.971Z,53.47
2019-05-30T12:58:52.910Z,53.64
2019-05-30T12:59:52.895Z,54.13
2019-05-30T13:00:52.909Z,54.32
2019-05-30T13:01:52.899Z,55.77
2019-05-30T13:02:52.881Z,57.31
2019-05-30T13:03:52.952Z,55.79
2019-05-30T13:04:52.898Z,54.44
2019-05-30T13:05:52.903Z,53.86
2019-05-30T13:06:57.659Z,54.61
2019-05-30T13:07:52.934Z,54.93
2019-05-30T13:08:52.902Z,54.97
2019-05-30T13:09:53.103Z,54.8
2019-05-30T13:10:52.927Z,54.51
2019-05-30T13:11:54.190Z,54.41
2019-05-30T13:12:52.891Z,54.15
2019-05-30T13:13:52.900Z,54.85
2019-05-30T13:14:52.924Z,53.96
2019-05-30T13:15:52.908Z,53.5